Springvale, Australia
Current Conditions -  °F | °C
As of 9:00 PM on Thursday 27 Nov 2014 (Local Time) from YMEN Reporting Station
Clear Clear  
Wind Chill: 57°   Ceiling: Unl
Heat Index: 57°   Visibility: 6mi
Dew Point: 48°   Wind: 13mph
Humidity: 72%   Direction: 180°S
Pressure: 30.24"   Gusts: NA
Location:  37.95°S, 145.15°E
Report Text: YMEN 271000Z AUTO 18011KT 9999 // NCD 14/09 Q1024
Loading
Personal Weather Stations






























Interactive Weather Map New forecast layout! Learn more

10-Day Weather Forecast

Advertisements
Track Severe Weather on mobile